sensor_id;sensor_type;location;lat;lon;timestamp;P1;durP1;ratioP1;P2;durP2;ratioP2
14992;SDS011;7592;51.088;13.732;2023-05-06T00:02:01;10.73;;;6.10;;
14992;SDS011;7592;51.088;13.732;2023-05-06T00:06:54;6.50;;;5.87;;
14992;SDS011;7592;51.088;13.732;2023-05-06T00:11:47;6.93;;;6.07;;
14992;SDS011;7592;51.088;13.732;2023-05-06T00:16:40;6.53;;;5.80;;
14992;SDS011;7592;51.088;13.732;2023-05-06T00:21:32;6.43;;;5.83;;
14992;SDS011;7592;51.088;13.732;2023-05-06T00:26:24;6.97;;;6.07;;
14992;SDS011;7592;51.088;13.732;2023-05-06T00:31:17;6.57;;;5.70;;
14992;SDS011;7592;51.088;13.732;2023-05-06T00:36:09;7.27;;;6.33;;
14992;SDS011;7592;51.088;13.732;2023-05-06T00:41:02;9.13;;;6.70;;
14992;SDS011;7592;51.088;13.732;2023-05-06T00:45:55;7.57;;;6.70;;
14992;SDS011;7592;51.088;13.732;2023-05-06T00:50:49;7.20;;;6.50;;
14992;SDS011;7592;51.088;13.732;2023-05-06T00:55:41;6.73;;;6.07;;
14992;SDS011;7592;51.088;13.732;2023-05-06T01:00:40;8.87;;;6.13;;
14992;SDS011;7592;51.088;13.732;2023-05-06T01:11:51;11.87;;;7.23;;
14992;SDS011;7592;51.088;13.732;2023-05-06T01:16:46;8.20;;;7.40;;
14992;SDS011;7592;51.088;13.732;2023-05-06T01:21:44;7.23;;;6.57;;
14992;SDS011;7592;51.088;13.732;2023-05-06T01:26:38;7.37;;;6.77;;
14992;SDS011;7592;51.088;13.732;2023-05-06T01:31:37;7.60;;;6.80;;
14992;SDS011;7592;51.088;13.732;2023-05-06T01:36:57;8.10;;;7.30;;
14992;SDS011;7592;51.088;13.732;2023-05-06T01:41:51;7.40;;;6.70;;
14992;SDS011;7592;51.088;13.732;2023-05-06T01:46:47;6.97;;;6.37;;
14992;SDS011;7592;51.088;13.732;2023-05-06T01:51:50;10.13;;;7.10;;
14992;SDS011;7592;51.088;13.732;2023-05-06T01:56:43;8.17;;;6.90;;
14992;SDS011;7592;51.088;13.732;2023-05-06T02:01:35;7.77;;;6.97;;
14992;SDS011;7592;51.088;13.732;2023-05-06T02:06:30;8.20;;;7.50;;
14992;SDS011;7592;51.088;13.732;2023-05-06T02:11:22;7.50;;;6.77;;
14992;SDS011;7592;51.088;13.732;2023-05-06T02:16:17;7.20;;;6.60;;
14992;SDS011;7592;51.088;13.732;2023-05-06T02:21:10;8.70;;;7.30;;
14992;SDS011;7592;51.088;13.732;2023-05-06T02:26:02;8.20;;;7.43;;
14992;SDS011;7592;51.088;13.732;2023-05-06T02:30:56;15.63;;;8.13;;
14992;SDS011;7592;51.088;13.732;2023-05-06T02:35:49;8.43;;;7.43;;
14992;SDS011;7592;51.088;13.732;2023-05-06T02:40:41;8.30;;;7.47;;
14992;SDS011;7592;51.088;13.732;2023-05-06T02:45:33;8.53;;;7.73;;
14992;SDS011;7592;51.088;13.732;2023-05-06T02:50:26;11.37;;;7.93;;
14992;SDS011;7592;51.088;13.732;2023-05-06T02:55:19;9.03;;;7.37;;
14992;SDS011;7592;51.088;13.732;2023-05-06T03:00:11;7.83;;;7.13;;
14992;SDS011;7592;51.088;13.732;2023-05-06T03:05:05;10.13;;;7.67;;
14992;SDS011;7592;51.088;13.732;2023-05-06T03:10:00;7.90;;;7.20;;
14992;SDS011;7592;51.088;13.732;2023-05-06T03:14:55;8.50;;;7.70;;
14992;SDS011;7592;51.088;13.732;2023-05-06T03:19:50;8.07;;;7.27;;
14992;SDS011;7592;51.088;13.732;2023-05-06T03:24:44;7.63;;;6.93;;
14992;SDS011;7592;51.088;13.732;2023-05-06T03:29:37;8.23;;;7.37;;
14992;SDS011;7592;51.088;13.732;2023-05-06T03:34:31;8.73;;;7.93;;
14992;SDS011;7592;51.088;13.732;2023-05-06T03:39:23;8.17;;;7.47;;
14992;SDS011;7592;51.088;13.732;2023-05-06T03:44:16;8.87;;;7.97;;
14992;SDS011;7592;51.088;13.732;2023-05-06T03:49:08;7.70;;;6.93;;
14992;SDS011;7592;51.088;13.732;2023-05-06T03:54:01;7.90;;;7.17;;
14992;SDS011;7592;51.088;13.732;2023-05-06T03:58:56;8.70;;;7.87;;
14992;SDS011;7592;51.088;13.732;2023-05-06T04:03:50;8.00;;;7.30;;
14992;SDS011;7592;51.088;13.732;2023-05-06T04:08:45;8.43;;;7.70;;
14992;SDS011;7592;51.088;13.732;2023-05-06T04:13:37;8.40;;;7.67;;
14992;SDS011;7592;51.088;13.732;2023-05-06T04:18:36;8.03;;;7.40;;
14992;SDS011;7592;51.088;13.732;2023-05-06T04:23:34;8.10;;;7.40;;
14992;SDS011;7592;51.088;13.732;2023-05-06T04:28:27;7.63;;;7.03;;
14992;SDS011;7592;51.088;13.732;2023-05-06T04:33:19;8.30;;;7.50;;
14992;SDS011;7592;51.088;13.732;2023-05-06T04:38:12;6.47;;;5.90;;
14992;SDS011;7592;51.088;13.732;2023-05-06T04:43:05;7.87;;;7.00;;
14992;SDS011;7592;51.088;13.732;2023-05-06T04:47:58;7.67;;;6.97;;
14992;SDS011;7592;51.088;13.732;2023-05-06T04:52:50;6.70;;;6.20;;
14992;SDS011;7592;51.088;13.732;2023-05-06T04:57:43;7.07;;;6.43;;
14992;SDS011;7592;51.088;13.732;2023-05-06T05:02:35;7.27;;;6.70;;
14992;SDS011;7592;51.088;13.732;2023-05-06T05:07:28;10.50;;;8.57;;
14992;SDS011;7592;51.088;13.732;2023-05-06T05:12:21;7.67;;;7.07;;
14992;SDS011;7592;51.088;13.732;2023-05-06T05:17:15;8.93;;;7.73;;
14992;SDS011;7592;51.088;13.732;2023-05-06T05:22:09;8.00;;;7.27;;
14992;SDS011;7592;51.088;13.732;2023-05-06T05:27:02;7.83;;;7.03;;
14992;SDS011;7592;51.088;13.732;2023-05-06T05:31:56;8.43;;;7.60;;
14992;SDS011;7592;51.088;13.732;2023-05-06T05:36:48;8.83;;;7.97;;
14992;SDS011;7592;51.088;13.732;2023-05-06T05:41:40;11.10;;;10.20;;
14992;SDS011;7592;51.088;13.732;2023-05-06T05:46:32;11.33;;;10.33;;
14992;SDS011;7592;51.088;13.732;2023-05-06T05:51:26;11.87;;;10.70;;
14992;SDS011;7592;51.088;13.732;2023-05-06T05:56:20;14.27;;;12.97;;
14992;SDS011;7592;51.088;13.732;2023-05-06T06:01:13;13.47;;;12.27;;
14992;SDS011;7592;51.088;13.732;2023-05-06T06:06:05;15.43;;;13.93;;
14992;SDS011;7592;51.088;13.732;2023-05-06T06:10:58;13.73;;;12.53;;
14992;SDS011;7592;51.088;13.732;2023-05-06T06:15:58;14.27;;;12.97;;
14992;SDS011;7592;51.088;13.732;2023-05-06T06:20:51;17.90;;;14.63;;
14992;SDS011;7592;51.088;13.732;2023-05-06T06:25:44;13.50;;;12.20;;
14992;SDS011;7592;51.088;13.732;2023-05-06T06:30:36;14.17;;;12.87;;
14992;SDS011;7592;51.088;13.732;2023-05-06T06:35:28;16.03;;;14.53;;
14992;SDS011;7592;51.088;13.732;2023-05-06T06:40:22;14.33;;;12.93;;
14992;SDS011;7592;51.088;13.732;2023-05-06T06:45:15;15.27;;;13.67;;
14992;SDS011;7592;51.088;13.732;2023-05-06T06:50:07;13.23;;;12.07;;
14992;SDS011;7592;51.088;13.732;2023-05-06T06:55:01;11.30;;;9.83;;
14992;SDS011;7592;51.088;13.732;2023-05-06T06:59:53;11.80;;;10.80;;
14992;SDS011;7592;51.088;13.732;2023-05-06T07:04:46;10.00;;;9.10;;
14992;SDS011;7592;51.088;13.732;2023-05-06T07:09:38;10.20;;;9.20;;
14992;SDS011;7592;51.088;13.732;2023-05-06T07:14:30;11.57;;;9.67;;
14992;SDS011;7592;51.088;13.732;2023-05-06T07:19:22;10.67;;;9.67;;
14992;SDS011;7592;51.088;13.732;2023-05-06T07:24:14;11.07;;;10.00;;
14992;SDS011;7592;51.088;13.732;2023-05-06T07:29:06;11.20;;;10.20;;
14992;SDS011;7592;51.088;13.732;2023-05-06T07:33:58;12.27;;;10.97;;
14992;SDS011;7592;51.088;13.732;2023-05-06T07:38:51;13.80;;;12.60;;
14992;SDS011;7592;51.088;13.732;2023-05-06T07:43:43;14.33;;;12.93;;
14992;SDS011;7592;51.088;13.732;2023-05-06T07:48:36;14.50;;;13.10;;
14992;SDS011;7592;51.088;13.732;2023-05-06T07:53:28;13.77;;;12.67;;
14992;SDS011;7592;51.088;13.732;2023-05-06T07:58:20;16.67;;;15.17;;
14992;SDS011;7592;51.088;13.732;2023-05-06T08:03:12;16.50;;;14.90;;
14992;SDS011;7592;51.088;13.732;2023-05-06T08:08:04;18.33;;;16.50;;
14992;SDS011;7592;51.088;13.732;2023-05-06T08:12:57;17.03;;;15.40;;
14992;SDS011;7592;51.088;13.732;2023-05-06T08:17:49;16.20;;;14.47;;
14992;SDS011;7592;51.088;13.732;2023-05-06T08:22:41;17.10;;;15.60;;
14992;SDS011;7592;51.088;13.732;2023-05-06T08:27:33;16.90;;;15.27;;
14992;SDS011;7592;51.088;13.732;2023-05-06T08:32:25;16.43;;;14.90;;
14992;SDS011;7592;51.088;13.732;2023-05-06T08:37:17;16.17;;;14.57;;
14992;SDS011;7592;51.088;13.732;2023-05-06T08:42:09;16.37;;;14.77;;
14992;SDS011;7592;51.088;13.732;2023-05-06T08:47:02;15.60;;;14.00;;
14992;SDS011;7592;51.088;13.732;2023-05-06T08:51:55;15.47;;;14.07;;
14992;SDS011;7592;51.088;13.732;2023-05-06T08:56:49;16.87;;;15.17;;
14992;SDS011;7592;51.088;13.732;2023-05-06T09:01:44;16.30;;;14.67;;
14992;SDS011;7592;51.088;13.732;2023-05-06T09:06:36;22.03;;;17.03;;
14992;SDS011;7592;51.088;13.732;2023-05-06T09:11:29;18.23;;;16.37;;
14992;SDS011;7592;51.088;13.732;2023-05-06T09:16:27;19.53;;;17.50;;
14992;SDS011;7592;51.088;13.732;2023-05-06T09:21:21;18.77;;;16.43;;
14992;SDS011;7592;51.088;13.732;2023-05-06T09:26:22;18.83;;;16.83;;
14992;SDS011;7592;51.088;13.732;2023-05-06T09:31:14;18.27;;;16.30;;
14992;SDS011;7592;51.088;13.732;2023-05-06T09:36:07;18.23;;;15.97;;
14992;SDS011;7592;51.088;13.732;2023-05-06T09:41:03;16.80;;;15.30;;
14992;SDS011;7592;51.088;13.732;2023-05-06T09:45:56;19.63;;;15.70;;
14992;SDS011;7592;51.088;13.732;2023-05-06T09:50:50;19.50;;;15.77;;
14992;SDS011;7592;51.088;13.732;2023-05-06T09:55:43;13.33;;;12.03;;
14992;SDS011;7592;51.088;13.732;2023-05-06T10:00:36;13.60;;;12.27;;
14992;SDS011;7592;51.088;13.732;2023-05-06T10:05:28;12.40;;;11.17;;
14992;SDS011;7592;51.088;13.732;2023-05-06T10:10:23;14.03;;;12.43;;
14992;SDS011;7592;51.088;13.732;2023-05-06T10:15:18;14.43;;;12.80;;
14992;SDS011;7592;51.088;13.732;2023-05-06T10:20:10;14.90;;;13.47;;
14992;SDS011;7592;51.088;13.732;2023-05-06T10:30:16;15.70;;;14.20;;
14992;SDS011;7592;51.088;13.732;2023-05-06T10:35:31;16.80;;;15.10;;
14992;SDS011;7592;51.088;13.732;2023-05-06T10:40:34;16.00;;;14.40;;
14992;SDS011;7592;51.088;13.732;2023-05-06T10:45:26;16.10;;;14.27;;
14992;SDS011;7592;51.088;13.732;2023-05-06T10:55:27;16.63;;;15.23;;
14992;SDS011;7592;51.088;13.732;2023-05-06T11:00:21;16.93;;;14.93;;
14992;SDS011;7592;51.088;13.732;2023-05-06T11:05:14;15.10;;;13.50;;
14992;SDS011;7592;51.088;13.732;2023-05-06T11:10:06;14.57;;;13.07;;
14992;SDS011;7592;51.088;13.732;2023-05-06T11:20:34;14.73;;;13.33;;
14992;SDS011;7592;51.088;13.732;2023-05-06T11:25:44;12.63;;;11.43;;
14992;SDS011;7592;51.088;13.732;2023-05-06T11:30:39;11.33;;;10.30;;
14992;SDS011;7592;51.088;13.732;2023-05-06T11:35:36;19.70;;;12.97;;
14992;SDS011;7592;51.088;13.732;2023-05-06T11:40:28;9.50;;;8.70;;
14992;SDS011;7592;51.088;13.732;2023-05-06T11:45:21;9.20;;;8.17;;
14992;SDS011;7592;51.088;13.732;2023-05-06T11:50:13;8.93;;;8.03;;
14992;SDS011;7592;51.088;13.732;2023-05-06T11:55:06;8.10;;;7.40;;
14992;SDS011;7592;51.088;13.732;2023-05-06T12:00:00;8.57;;;7.60;;
14992;SDS011;7592;51.088;13.732;2023-05-06T12:05:02;11.27;;;10.00;;
14992;SDS011;7592;51.088;13.732;2023-05-06T12:09:55;11.57;;;10.37;;
14992;SDS011;7592;51.088;13.732;2023-05-06T12:14:49;13.53;;;12.13;;
14992;SDS011;7592;51.088;13.732;2023-05-06T12:19:44;12.53;;;11.30;;
14992;SDS011;7592;51.088;13.732;2023-05-06T12:24:36;12.07;;;10.30;;
14992;SDS011;7592;51.088;13.732;2023-05-06T12:29:29;13.27;;;11.70;;
14992;SDS011;7592;51.088;13.732;2023-05-06T12:34:25;11.77;;;10.53;;
14992;SDS011;7592;51.088;13.732;2023-05-06T12:39:34;12.00;;;10.13;;
14992;SDS011;7592;51.088;13.732;2023-05-06T12:44:33;12.30;;;10.60;;
14992;SDS011;7592;51.088;13.732;2023-05-06T12:49:42;10.43;;;9.43;;
14992;SDS011;7592;51.088;13.732;2023-05-06T12:54:38;11.67;;;10.57;;
14992;SDS011;7592;51.088;13.732;2023-05-06T12:59:30;10.93;;;9.83;;
14992;SDS011;7592;51.088;13.732;2023-05-06T13:04:23;12.03;;;10.90;;
14992;SDS011;7592;51.088;13.732;2023-05-06T13:09:16;10.60;;;9.63;;
14992;SDS011;7592;51.088;13.732;2023-05-06T13:14:09;10.53;;;9.43;;
14992;SDS011;7592;51.088;13.732;2023-05-06T13:19:01;9.50;;;8.60;;
14992;SDS011;7592;51.088;13.732;2023-05-06T13:23:55;10.90;;;9.73;;
14992;SDS011;7592;51.088;13.732;2023-05-06T13:28:47;12.43;;;11.30;;
14992;SDS011;7592;51.088;13.732;2023-05-06T13:33:39;10.70;;;9.70;;
14992;SDS011;7592;51.088;13.732;2023-05-06T13:38:31;14.17;;;12.77;;
14992;SDS011;7592;51.088;13.732;2023-05-06T13:43:23;14.60;;;13.20;;
14992;SDS011;7592;51.088;13.732;2023-05-06T13:48:15;14.33;;;12.80;;
14992;SDS011;7592;51.088;13.732;2023-05-06T13:53:08;17.47;;;15.70;;
14992;SDS011;7592;51.088;13.732;2023-05-06T13:58:01;18.00;;;16.10;;
14992;SDS011;7592;51.088;13.732;2023-05-06T14:02:53;17.47;;;15.67;;
14992;SDS011;7592;51.088;13.732;2023-05-06T14:07:46;18.13;;;16.20;;
14992;SDS011;7592;51.088;13.732;2023-05-06T14:12:38;21.47;;;17.77;;
14992;SDS011;7592;51.088;13.732;2023-05-06T14:17:30;22.37;;;17.50;;
14992;SDS011;7592;51.088;13.732;2023-05-06T14:22:23;19.20;;;17.13;;
14992;SDS011;7592;51.088;13.732;2023-05-06T14:27:15;21.77;;;17.97;;
14992;SDS011;7592;51.088;13.732;2023-05-06T14:32:08;19.10;;;17.13;;
14992;SDS011;7592;51.088;13.732;2023-05-06T14:37:00;15.90;;;14.33;;
14992;SDS011;7592;51.088;13.732;2023-05-06T14:41:52;18.73;;;16.47;;
14992;SDS011;7592;51.088;13.732;2023-05-06T14:46:44;17.40;;;15.57;;
14992;SDS011;7592;51.088;13.732;2023-05-06T14:51:36;19.13;;;16.73;;
14992;SDS011;7592;51.088;13.732;2023-05-06T14:56:29;21.07;;;16.90;;
14992;SDS011;7592;51.088;13.732;2023-05-06T15:01:21;19.80;;;15.93;;
14992;SDS011;7592;51.088;13.732;2023-05-06T15:06:13;20.73;;;15.63;;
14992;SDS011;7592;51.088;13.732;2023-05-06T15:11:05;16.97;;;13.80;;
14992;SDS011;7592;51.088;13.732;2023-05-06T15:16:00;22.17;;;16.50;;
14992;SDS011;7592;51.088;13.732;2023-05-06T15:20:52;17.87;;;15.53;;
14992;SDS011;7592;51.088;13.732;2023-05-06T15:25:45;20.53;;;16.17;;
14992;SDS011;7592;51.088;13.732;2023-05-06T15:30:37;19.60;;;16.97;;
14992;SDS011;7592;51.088;13.732;2023-05-06T15:35:30;20.10;;;15.57;;
14992;SDS011;7592;51.088;13.732;2023-05-06T15:40:22;16.63;;;14.87;;
14992;SDS011;7592;51.088;13.732;2023-05-06T15:45:16;22.40;;;16.00;;
14992;SDS011;7592;51.088;13.732;2023-05-06T15:50:08;18.00;;;15.87;;
14992;SDS011;7592;51.088;13.732;2023-05-06T15:55:21;17.17;;;15.23;;
14992;SDS011;7592;51.088;13.732;2023-05-06T16:00:16;18.40;;;14.23;;
14992;SDS011;7592;51.088;13.732;2023-05-06T16:05:08;15.00;;;13.43;;
14992;SDS011;7592;51.088;13.732;2023-05-06T16:10:00;17.67;;;14.97;;
14992;SDS011;7592;51.088;13.732;2023-05-06T16:14:53;20.40;;;16.17;;
14992;SDS011;7592;51.088;13.732;2023-05-06T16:19:45;21.90;;;17.30;;
14992;SDS011;7592;51.088;13.732;2023-05-06T16:24:37;19.80;;;16.63;;
14992;SDS011;7592;51.088;13.732;2023-05-06T16:29:29;23.10;;;17.13;;
14992;SDS011;7592;51.088;13.732;2023-05-06T16:34:21;21.57;;;18.07;;
14992;SDS011;7592;51.088;13.732;2023-05-06T16:39:13;21.17;;;17.37;;
14992;SDS011;7592;51.088;13.732;2023-05-06T16:44:05;22.13;;;18.73;;
14992;SDS011;7592;51.088;13.732;2023-05-06T16:48:57;19.17;;;15.27;;
14992;SDS011;7592;51.088;13.732;2023-05-06T16:53:49;17.73;;;15.67;;
14992;SDS011;7592;51.088;13.732;2023-05-06T16:58:42;15.97;;;14.37;;
14992;SDS011;7592;51.088;13.732;2023-05-06T17:03:34;17.90;;;16.00;;
14992;SDS011;7592;51.088;13.732;2023-05-06T17:08:28;17.57;;;15.67;;
14992;SDS011;7592;51.088;13.732;2023-05-06T17:13:23;16.93;;;15.13;;
14992;SDS011;7592;51.088;13.732;2023-05-06T17:18:15;17.87;;;15.97;;
14992;SDS011;7592;51.088;13.732;2023-05-06T17:23:08;18.93;;;16.10;;
14992;SDS011;7592;51.088;13.732;2023-05-06T17:28:00;18.67;;;15.50;;
14992;SDS011;7592;51.088;13.732;2023-05-06T17:32:53;16.97;;;15.23;;
14992;SDS011;7592;51.088;13.732;2023-05-06T17:37:45;18.67;;;15.53;;
14992;SDS011;7592;51.088;13.732;2023-05-06T17:42:37;18.70;;;16.70;;
14992;SDS011;7592;51.088;13.732;2023-05-06T17:47:29;19.47;;;16.70;;
14992;SDS011;7592;51.088;13.732;2023-05-06T17:52:22;19.53;;;17.10;;
14992;SDS011;7592;51.088;13.732;2023-05-06T17:57:16;19.73;;;16.17;;
14992;SDS011;7592;51.088;13.732;2023-05-06T18:02:08;19.17;;;15.93;;
14992;SDS011;7592;51.088;13.732;2023-05-06T18:07:04;18.57;;;16.13;;
14992;SDS011;7592;51.088;13.732;2023-05-06T18:11:56;18.67;;;16.50;;
14992;SDS011;7592;51.088;13.732;2023-05-06T18:16:48;17.83;;;15.57;;
14992;SDS011;7592;51.088;13.732;2023-05-06T18:21:40;15.60;;;13.50;;
14992;SDS011;7592;51.088;13.732;2023-05-06T18:26:33;17.27;;;13.20;;
14992;SDS011;7592;51.088;13.732;2023-05-06T18:31:36;14.73;;;12.50;;
14992;SDS011;7592;51.088;13.732;2023-05-06T18:36:28;13.27;;;11.87;;
14992;SDS011;7592;51.088;13.732;2023-05-06T18:41:21;13.60;;;12.30;;
14992;SDS011;7592;51.088;13.732;2023-05-06T18:46:13;13.57;;;12.13;;
14992;SDS011;7592;51.088;13.732;2023-05-06T18:56:02;14.83;;;13.10;;
14992;SDS011;7592;51.088;13.732;2023-05-06T19:00:55;14.30;;;12.53;;
14992;SDS011;7592;51.088;13.732;2023-05-06T19:05:47;14.73;;;13.23;;
14992;SDS011;7592;51.088;13.732;2023-05-06T19:10:39;15.43;;;13.83;;
14992;SDS011;7592;51.088;13.732;2023-05-06T19:15:32;15.30;;;13.70;;
14992;SDS011;7592;51.088;13.732;2023-05-06T19:20:26;14.73;;;13.00;;
14992;SDS011;7592;51.088;13.732;2023-05-06T19:25:18;16.37;;;14.57;;
14992;SDS011;7592;51.088;13.732;2023-05-06T19:30:10;14.40;;;12.73;;
14992;SDS011;7592;51.088;13.732;2023-05-06T19:35:02;11.67;;;10.20;;
14992;SDS011;7592;51.088;13.732;2023-05-06T19:39:58;10.83;;;9.73;;
14992;SDS011;7592;51.088;13.732;2023-05-06T19:44:50;11.43;;;9.60;;
14992;SDS011;7592;51.088;13.732;2023-05-06T19:49:42;10.03;;;9.00;;
14992;SDS011;7592;51.088;13.732;2023-05-06T19:54:35;10.33;;;9.37;;
14992;SDS011;7592;51.088;13.732;2023-05-06T19:59:27;9.97;;;8.53;;
14992;SDS011;7592;51.088;13.732;2023-05-06T20:04:19;9.93;;;8.93;;
14992;SDS011;7592;51.088;13.732;2023-05-06T20:09:11;10.33;;;9.33;;
14992;SDS011;7592;51.088;13.732;2023-05-06T20:14:03;11.93;;;9.67;;
14992;SDS011;7592;51.088;13.732;2023-05-06T20:18:55;14.40;;;12.90;;
14992;SDS011;7592;51.088;13.732;2023-05-06T20:23:47;15.83;;;12.93;;
14992;SDS011;7592;51.088;13.732;2023-05-06T20:28:39;12.83;;;11.53;;
14992;SDS011;7592;51.088;13.732;2023-05-06T20:33:32;13.00;;;10.57;;
14992;SDS011;7592;51.088;13.732;2023-05-06T20:38:24;10.30;;;9.30;;
14992;SDS011;7592;51.088;13.732;2023-05-06T20:43:17;11.23;;;9.63;;
14992;SDS011;7592;51.088;13.732;2023-05-06T20:48:09;11.67;;;10.40;;
14992;SDS011;7592;51.088;13.732;2023-05-06T20:53:05;9.17;;;8.20;;
14992;SDS011;7592;51.088;13.732;2023-05-06T20:57:57;9.47;;;8.47;;
14992;SDS011;7592;51.088;13.732;2023-05-06T21:02:49;10.63;;;9.13;;
14992;SDS011;7592;51.088;13.732;2023-05-06T21:07:42;9.57;;;8.40;;
14992;SDS011;7592;51.088;13.732;2023-05-06T21:12:34;8.03;;;7.13;;
14992;SDS011;7592;51.088;13.732;2023-05-06T21:17:26;7.50;;;6.90;;
14992;SDS011;7592;51.088;13.732;2023-05-06T21:22:22;8.13;;;7.43;;
14992;SDS011;7592;51.088;13.732;2023-05-06T21:27:14;8.00;;;7.30;;
14992;SDS011;7592;51.088;13.732;2023-05-06T21:32:08;8.67;;;7.87;;
14992;SDS011;7592;51.088;13.732;2023-05-06T21:37:00;8.70;;;7.90;;
14992;SDS011;7592;51.088;13.732;2023-05-06T21:41:52;9.63;;;8.73;;
14992;SDS011;7592;51.088;13.732;2023-05-06T21:46:44;10.53;;;9.50;;
14992;SDS011;7592;51.088;13.732;2023-05-06T21:51:37;11.63;;;10.53;;
14992;SDS011;7592;51.088;13.732;2023-05-06T21:56:29;9.83;;;8.97;;
14992;SDS011;7592;51.088;13.732;2023-05-06T22:01:22;10.07;;;9.17;;
14992;SDS011;7592;51.088;13.732;2023-05-06T22:06:16;9.97;;;8.97;;
14992;SDS011;7592;51.088;13.732;2023-05-06T22:11:11;9.90;;;9.00;;
14992;SDS011;7592;51.088;13.732;2023-05-06T22:16:03;9.60;;;8.70;;
14992;SDS011;7592;51.088;13.732;2023-05-06T22:20:57;10.00;;;9.10;;
14992;SDS011;7592;51.088;13.732;2023-05-06T22:25:50;10.20;;;9.30;;
14992;SDS011;7592;51.088;13.732;2023-05-06T22:30:42;11.97;;;10.80;;
14992;SDS011;7592;51.088;13.732;2023-05-06T22:35:34;11.43;;;10.40;;
14992;SDS011;7592;51.088;13.732;2023-05-06T22:40:28;12.33;;;11.13;;
14992;SDS011;7592;51.088;13.732;2023-05-06T22:45:21;13.33;;;11.53;;
14992;SDS011;7592;51.088;13.732;2023-05-06T22:50:13;13.17;;;11.07;;
14992;SDS011;7592;51.088;13.732;2023-05-06T22:55:05;12.67;;;11.50;;
14992;SDS011;7592;51.088;13.732;2023-05-06T23:00:00;14.60;;;13.03;;
14992;SDS011;7592;51.088;13.732;2023-05-06T23:04:52;14.27;;;12.67;;
14992;SDS011;7592;51.088;13.732;2023-05-06T23:09:44;16.43;;;14.77;;
14992;SDS011;7592;51.088;13.732;2023-05-06T23:14:37;17.57;;;15.20;;
14992;SDS011;7592;51.088;13.732;2023-05-06T23:19:29;17.57;;;15.77;;
14992;SDS011;7592;51.088;13.732;2023-05-06T23:24:21;18.83;;;16.83;;
14992;SDS011;7592;51.088;13.732;2023-05-06T23:29:13;16.90;;;15.10;;
14992;SDS011;7592;51.088;13.732;2023-05-06T23:34:05;18.40;;;14.43;;
14992;SDS011;7592;51.088;13.732;2023-05-06T23:38:57;14.73;;;13.23;;
14992;SDS011;7592;51.088;13.732;2023-05-06T23:43:49;13.83;;;12.03;;
14992;SDS011;7592;51.088;13.732;2023-05-06T23:48:41;14.90;;;12.40;;
14992;SDS011;7592;51.088;13.732;2023-05-06T23:53:34;14.10;;;12.60;;
14992;SDS011;7592;51.088;13.732;2023-05-06T23:58:26;16.63;;;13.10;;
